Locharron, United Kingdom
Current Conditions -  °F | °C
As of 4:20 AM on Thursday 23 Oct 2014 (Local Time) from EGPE Reporting Station
Scattered Clouds Scattered Clouds  
Wind Chill: 54°   Ceiling: Unl
Heat Index: 54°   Visibility: 6mi
Dew Point: 52°   Wind: 16mph
Humidity: 94%   Direction: 210°SSW
Pressure: 29.68"   Gusts: NA
Location:  57.4°N, 5.48°W
Report Text: EGPE 230320Z 21014KT 9999 FEW012 SCT048 12/11 Q1005
Loading
Personal Weather Stations






























Interactive Weather Map
Tropical Storm Tracking
New forecast layout! Learn more

10-Day Weather Forecast

Advertisements
Track Severe Weather on mobile